Time;durP1;ratioP1;P1;durP2;ratioP2;P2;SDS_P1;SDS_P2;PMS_P1;PMS_P2;Temp;Humidity;BMP_temperature;BMP_pressure;BME280_temperature;BME280_humidity;BME280_pressure;Samples;Min_cycle;Max_cycle;Signal;HPM_P1;HPM_P2
2023/05/18 00:00:04;;;;;;;8.80;2.33;;;;;;;;;;6099250;23;20021;-78
2023/05/18 00:02:40;;;;;;;8.57;2.30;;;;;;;;;;6113906;23;20014;-79
2023/05/18 00:05:32;;;;;;;6.35;2.67;;;;;;;;;;6160776;23;20005;-79
2023/05/18 00:08:36;;;;;;;8.30;2.13;;;;;;;;;;6100207;23;20006;-83
2023/05/18 00:11:19;;;;;;;5.28;1.98;;;;;;;;;;6161263;23;20025;-79
2023/05/18 00:14:21;;;;;;;7.00;2.30;;;;;;;;;;6099847;23;20031;-79
2023/05/18 00:20:08;;;;;;;7.93;2.58;;;;;;;;;;6093533;23;20025;-80
2023/05/18 00:22:35;;;;;;;6.82;2.67;;;;;;;;;;6075260;23;20006;-79
2023/05/18 00:25:16;;;;;;;8.05;2.20;;;;;;;;;;6104947;23;20018;-79
2023/05/18 00:27:43;;;;;;;8.60;2.40;;;;;;;;;;6126657;23;20021;-79
2023/05/18 00:30:15;;;;;;;6.85;2.10;;;;;;;;;;6132488;23;20453;-80
2023/05/18 00:32:44;;;;;;;4.68;2.13;;;;;;;;;;6130103;23;20334;-78
2023/05/18 00:35:31;;;;;;;5.32;1.92;;;;;;;;;;6125624;23;20010;-79
2023/05/18 00:38:02;;;;;;;7.40;2.20;;;;;;;;;;6130173;23;20480;-79
2023/05/18 00:40:46;;;;;;;11.43;2.33;;;;;;;;;;6131510;23;20010;-77
2023/05/18 00:43:13;;;;;;;5.18;1.88;;;;;;;;;;6121070;23;20006;-80
2023/05/18 00:45:41;;;;;;;8.35;2.08;;;;;;;;;;6139232;23;19986;-82
2023/05/18 00:58:33;;;;;;;10.82;2.70;;;;;;;;;;6132057;23;20048;-78
2023/05/18 01:01:01;;;;;;;9.77;2.50;;;;;;;;;;6164502;23;20023;-79
2023/05/18 01:03:29;;;;;;;7.57;2.03;;;;;;;;;;6164521;23;19997;-79
2023/05/18 01:05:56;;;;;;;11.57;2.25;;;;;;;;;;6164834;23;20001;-79
2023/05/18 01:08:23;;;;;;;6.68;2.30;;;;;;;;;;6192695;23;20318;-79
2023/05/18 01:11:00;;;;;;;4.70;1.88;;;;;;;;;;6191213;23;20009;-79
2023/05/18 01:13:31;;;;;;;9.35;2.55;;;;;;;;;;6165560;23;20033;-80
2023/05/18 01:15:59;;;;;;;;;;;9.60;99.90;;;;;;6193488;23;20047;-80
2023/05/18 01:18:30;;;;;;;8.43;2.05;;;;;;;;;;6166607;23;19908;-80
2023/05/18 01:20:56;;;;;;;10.07;2.55;;;;;;;;;;6166537;23;20344;-79
2023/05/18 01:23:41;;;;;;;7.25;2.20;;;;;;;;;;6165798;23;20389;-79
2023/05/18 01:26:10;;;;;;;8.20;2.50;;;;;;;;;;6165206;23;20012;-80
2023/05/18 01:28:37;;;;;;;8.40;2.00;;;;;;;;;;6193276;23;20406;-79
2023/05/18 01:31:03;;;;;;;7.10;2.00;;;;;;;;;;6193118;23;20005;-78
2023/05/18 01:33:29;;;;;;;10.07;2.60;;;;;;;;;;6166947;23;19998;-79
2023/05/18 01:35:55;;;;;;;12.20;2.30;;;;;;;;;;6191908;23;20001;-79
2023/05/18 01:38:25;;;;;;;7.82;2.15;;;;;;;;;;6191780;23;20009;-79
2023/05/18 01:41:06;;;;;;;8.93;2.10;;;;;;;;;;6165047;23;19997;-79
2023/05/18 01:43:34;;;;;;;7.38;2.20;;;;;;;;;;6192481;23;20382;-79
2023/05/18 01:46:11;;;;;;;5.40;2.00;;;;;;;;;;6166054;23;20011;-80
2023/05/18 01:49:14;;;;;;;8.30;2.00;;;;;;;;;;6186222;23;20001;-79
2023/05/18 01:52:05;;;;;;;8.82;3.03;;;;;;;;;;6165004;23;20008;-79
2023/05/18 01:55:08;;;;;;;;;;;9.60;99.90;;;;;;6182123;23;20341;-79
2023/05/18 02:01:48;;;;;;;10.77;2.10;;;;;;;;;;6188359;23;20021;-79
2023/05/18 02:05:06;;;;;;;7.03;1.90;;;;;;;;;;6160832;23;20015;-78
2023/05/18 02:07:42;;;;;;;9.13;2.03;;;;;;;;;;6182376;23;20009;-79
2023/05/18 02:10:24;;;;;;;6.13;1.90;;;;;;;;;;6185194;23;20084;-79
2023/05/18 02:12:55;;;;;;;6.00;2.08;;;;;;;;;;6185654;23;20445;-79
2023/05/18 02:15:23;;;;;;;10.68;2.08;;;;;;;;;;6185697;23;20005;-80
2023/05/18 02:18:10;;;;;;;9.18;2.20;;;;;;;;;;6163923;23;20013;-80
2023/05/18 02:20:47;;;;;;;10.77;1.88;;;;;;;;;;6190760;23;20001;-79
2023/05/18 02:23:27;;;;;;;7.75;2.28;;;;;;;;;;6189918;23;20016;-78
2023/05/18 02:25:57;;;;;;;6.85;2.40;;;;;;;;;;6190162;23;20001;-79
2023/05/18 02:28:38;;;;;;;9.32;2.67;;;9.30;99.90;;;;;;6184742;23;20001;-79
2023/05/18 02:31:14;;;;;;;;;;;9.30;99.90;;;;;;6187492;23;20017;-79
2023/05/18 02:33:48;;;;;;;11.13;2.20;;;;;;;;;;6191235;23;19987;-79
2023/05/18 02:36:17;;;;;;;8.15;2.13;;;;;;;;;;6190608;23;20009;-79
2023/05/18 02:38:46;;;;;;;7.47;1.90;;;;;;;;;;6187865;23;20005;-79
2023/05/18 02:41:16;;;;;;;6.88;1.73;;;;;;;;;;6188522;23;20012;-80
2023/05/18 02:43:48;;;;;;;8.18;1.90;;;;;;;;;;6188470;23;20345;-80
2023/05/18 02:46:16;;;;;;;6.57;2.33;;;;;;;;;;6189114;23;20441;-79
2023/05/18 02:49:38;;;;;;;6.65;1.90;;;9.20;99.90;;;;;;6188792;23;20053;-80
2023/05/18 02:52:07;;;;;;;7.70;2.08;;;;;;;;;;6189869;23;20005;-79
2023/05/18 02:54:46;;;;;;;7.03;1.83;;;;;;;;;;6186454;23;20025;-79
2023/05/18 02:57:15;;;;;;;7.00;2.13;;;;;;;;;;6189958;23;20005;-81
2023/05/18 03:00:09;;;;;;;7.28;2.00;;;;;;;;;;6187295;23;20029;-79
2023/05/18 03:02:37;;;;;;;8.82;2.20;;;;;;;;;;6189513;23;20017;-80
2023/05/18 03:05:25;;;;;;;11.23;2.47;;;;;;;;;;6189832;23;20005;-79
2023/05/18 03:07:53;;;;;;;8.80;2.08;;;;;;;;;;6189671;23;20001;-79
2023/05/18 03:10:25;;;;;;;8.00;2.35;;;;;;;;;;6189080;23;20041;-78
2023/05/18 03:12:54;;;;;;;9.73;2.35;;;;;;;;;;6189888;23;20005;-80
2023/05/18 03:15:55;;;;;;;9.57;2.00;;;;;;;;;;6186619;23;20023;-78
2023/05/18 03:18:35;;;;;;;9.00;2.03;;;;;;;;;;6191962;23;20040;-79
2023/05/18 03:21:20;;;;;;;8.43;2.50;;;;;;;;;;6190317;23;20004;-78
2023/05/18 03:27:32;;;;;;;5.00;2.00;;;;;;;;;;6191658;23;20004;-78
2023/05/18 03:30:11;;;;;;;7.22;2.20;;;;;;;;;;6192048;23;20001;-80
2023/05/18 03:32:41;;;;;;;7.18;2.03;;;;;;;;;;6192010;23;20005;-77
2023/05/18 03:38:16;;;;;;;9.77;1.88;;;;;;;;;;6191207;23;20352;-79
2023/05/18 03:43:56;;;;;;;8.38;2.00;;;;;;;;;;6131963;23;20081;-78
2023/05/18 03:46:29;;;;;;;10.75;2.22;;;;;;;;;;6191084;23;20091;-78
2023/05/18 03:49:03;;;;;;;8.20;2.17;;;;;;;;;;6093823;23;20061;-79
2023/05/18 03:51:32;;;;;;;8.98;1.95;;;;;;;;;;6164297;23;20011;-78
2023/05/18 03:54:36;;;;;;;5.82;1.95;;;;;;;;;;6192286;23;20001;-79
2023/05/18 03:57:02;;;;;;;10.02;2.08;;;;;;;;;;6191112;23;20033;-78
2023/05/18 03:59:30;;;;;;;10.95;2.25;;;;;;;;;;6190118;23;20028;-79
2023/05/18 04:01:59;;;;;;;10.43;2.50;;;;;;;;;;6191502;23;20048;-78
2023/05/18 04:04:28;;;;;;;7.90;2.40;;;;;;;;;;6189538;23;20001;-79
2023/05/18 04:07:20;;;;;;;10.15;2.50;;;;;;;;;;6189963;23;20029;-78
2023/05/18 04:10:28;;;;;;;7.28;2.20;;;;;;;;;;6191237;23;20063;-80
2023/05/18 04:13:20;;;;;;;8.60;2.13;;;;;;;;;;6189458;23;20012;-79
2023/05/18 04:15:46;;;;;;;8.57;2.25;;;;;;;;;;6189808;23;20009;-79
2023/05/18 04:18:13;;;;;;;6.78;2.20;;;;;;;;;;6190121;23;20088;-78
2023/05/18 04:20:42;;;;;;;8.50;2.08;;;;;;;;;;6191226;23;20390;-79
2023/05/18 04:23:09;;;;;;;9.30;2.10;;;;;;;;;;6189459;23;20004;-79
2023/05/18 04:25:42;;;;;;;5.25;1.98;;;;;;;;;;6189823;23;20049;-77
2023/05/18 04:34:28;;;;;;;10.65;2.10;;;;;;;;;;6128882;23;20016;-80
2023/05/18 04:36:57;;;;;;;8.40;2.10;;;;;;;;;;6104018;23;20006;-78
2023/05/18 04:39:57;;;;;;;7.93;2.00;;;;;;;;;;6157218;23;20020;-79
2023/05/18 04:42:37;;;;;;;8.95;2.35;;;;;;;;;;6190929;23;20008;-79
2023/05/18 04:45:04;;;;;;;7.97;2.75;;;;;;;;;;6190218;23;20024;-78
2023/05/18 04:47:36;;;;;;;9.63;1.90;;;;;;;;;;6163081;23;20134;-79
2023/05/18 04:50:11;;;;;;;6.43;2.08;;;;;;;;;;6190356;23;20063;-78
2023/05/18 04:52:40;;;;;;;9.90;2.67;;;;;;;;;;6188279;23;20005;-78
2023/05/18 04:55:09;;;;;;;10.60;2.60;;;;;;;;;;6190523;23;20536;-78
2023/05/18 04:57:36;;;;;;;6.75;2.00;;;;;;;;;;6190410;23;20072;-79
2023/05/18 05:00:04;;;;;;;5.68;2.08;;;;;;;;;;6189155;23;20072;-79
2023/05/18 05:02:41;;;;;;;8.48;2.78;;;;;;;;;;6190788;23;20376;-79
2023/05/18 05:05:08;;;;;;;10.80;2.53;;;;;;;;;;6190297;23;20025;-79
2023/05/18 05:07:36;;;;;;;14.55;2.90;;;;;;;;;;6191282;23;20076;-78
2023/05/18 05:10:07;;;;;;;8.93;2.35;;;;;;;;;;6189739;23;20008;-79
2023/05/18 05:12:38;;;;;;;7.32;2.03;;;;;;;;;;6188920;23;20008;-79
2023/05/18 05:15:25;;;;;;;11.77;2.42;;;;;;;;;;6191367;23;20001;-78
2023/05/18 05:18:17;;;;;;;7.60;2.40;;;;;;;;;;6187130;23;20005;-78
2023/05/18 05:20:45;;;;;;;8.05;2.53;;;;;;;;;;6189106;23;20366;-79
2023/05/18 05:23:18;;;;;;;11.20;3.03;;;;;;;;;;6164110;23;20518;-78
2023/05/18 05:25:52;;;;;;;11.02;2.55;;;;;;;;;;6189648;23;20120;-79
2023/05/18 05:28:22;;;;;;;8.85;2.30;;;;;;;;;;6187897;23;20456;-80
2023/05/18 05:30:49;;;;;;;9.68;2.17;;;;;;;;;;6189963;23;20009;-79
2023/05/18 05:33:30;;;;;;;8.75;1.90;;;;;;;;;;6188863;23;20392;-79
2023/05/18 05:35:58;;;;;;;8.80;1.80;;;;;;;;;;6193729;23;20123;-82
2023/05/18 05:38:27;;;;;;;12.18;2.58;;;;;;;;;;6190445;23;20015;-79
2023/05/18 05:40:54;;;;;;;7.55;2.15;;;;;;;;;;6191220;23;20052;-78
2023/05/18 05:43:20;;;;;;;10.50;2.20;;;;;;;;;;6189824;23;20005;-78
2023/05/18 05:45:48;;;;;;;8.13;2.22;;;;;;;;;;6188694;23;20005;-78
2023/05/18 05:48:17;;;;;;;8.27;2.22;;;;;;;;;;6188221;23;20001;-78
2023/05/18 05:50:52;;;;;;;6.80;1.92;;;;;;;;;;6188364;23;20015;-78
2023/05/18 05:53:19;;;;;;;5.75;2.15;;;;;;;;;;6189131;23;20005;-81
2023/05/18 05:55:49;;;;;;;6.25;2.05;;;;;;;;;;6189251;23;20085;-78
2023/05/18 05:58:22;;;;;;;6.32;2.10;;;;;;;;;;6188720;23;20009;-80
2023/05/18 06:00:48;;;;;;;10.80;2.83;;;;;;;;;;6187761;23;20029;-78
2023/05/18 06:03:16;;;;;;;10.27;2.20;;;;;;;;;;6188686;23;20016;-79
2023/05/18 06:05:42;;;;;;;7.72;2.92;;;;;;;;;;6188305;23;20004;-79
2023/05/18 06:08:08;;;;;;;5.63;2.10;;;;;;;;;;6189657;23;20016;-79
2023/05/18 06:10:34;;;;;;;5.93;2.33;;;;;;;;;;6187633;23;20067;-78
2023/05/18 06:13:02;;;;;;;7.30;2.28;;;;;;;;;;6189574;23;20009;-78
2023/05/18 06:15:29;;;;;;;7.13;2.05;;;;;;;;;;6189239;23;20001;-77
2023/05/18 06:17:55;;;;;;;11.35;2.30;;;;;;;;;;6188962;23;20040;-77
2023/05/18 06:20:22;;;;;;;9.13;2.20;;;;;;;;;;6188369;23;19997;-79
2023/05/18 06:22:48;;;;;;;8.77;2.15;;;;;;;;;;6187628;23;20001;-79
2023/05/18 06:25:14;;;;;;;12.38;2.70;;;;;;;;;;6186818;23;20001;-79
2023/05/18 06:27:41;;;;;;;7.88;2.00;;;;;;;;;;6189041;23;20012;-79
2023/05/18 06:30:09;;;;;;;9.52;2.30;;;;;;;;;;6187227;23;20008;-78
2023/05/18 06:32:36;;;;;;;7.68;2.10;;;;;;;;;;6186966;23;20340;-78
2023/05/18 06:35:03;;;;;;;8.55;2.00;;;;;;;;;;6188521;23;20008;-78
2023/05/18 06:37:30;;;;;;;8.10;2.15;;;;;;;;;;6188883;23;20005;-78
2023/05/18 06:39:59;;;;;;;8.63;2.30;;;;;;;;;;6188029;23;20061;-77
2023/05/18 06:42:25;;;;;;;7.20;2.60;;;;;;;;;;6191321;23;20001;-79
2023/05/18 06:44:53;;;;;;;7.82;2.63;;;;;;;;;;6191549;23;20005;-80
2023/05/18 09:09:57;;;;;;;10.38;2.13;;;;;;;;;;6176705;23;20033;-83
2023/05/18 13:06:03;;;;;;;8.23;2.58;;;;;;;;;;6160478;23;20256;-82
2023/05/18 13:08:53;;;;;;;10.52;2.33;;;;;;;;;;6197871;22;20011;-83
2023/05/18 13:11:29;;;;;;;6.82;2.28;;;;;;;;;;6187839;23;20017;-86
2023/05/18 13:14:03;;;;;;;9.20;2.35;;;;;;;;;;6183800;23;20051;-83
2023/05/18 13:16:30;;;;;;;8.68;2.80;;;;;;;;;;6171689;23;20044;-82
2023/05/18 13:19:01;;;;;;;8.77;2.38;;;;;;;;;;6196910;23;20020;-83
2023/05/18 13:21:28;;;;;;;5.22;2.30;;;;;;;;;;6196585;23;20040;-82
2023/05/18 13:24:06;;;;;;;5.25;1.90;;;;;;;;;;6188406;23;20013;-83
2023/05/18 13:26:34;;;;;;;10.02;2.65;;;;;;;;;;6187642;23;20001;-82
2023/05/18 13:29:01;;;;;;;6.72;2.10;;;;;;;;;;6188076;23;20009;-82
2023/05/18 13:31:31;;;;;;;8.07;2.72;;;;;;;;;;6185607;23;20013;-82
2023/05/18 13:34:00;;;;;;;8.23;2.47;;;;;;;;;;6187926;23;20428;-83
2023/05/18 13:36:32;;;;;;;6.03;2.40;;;;;;;;;;6187544;23;20033;-82
2023/05/18 13:39:05;;;;;;;7.35;2.30;;;;;;;;;;6188947;23;20343;-82
2023/05/18 13:41:34;;;;;;;5.32;2.30;;;;;;;;;;6163829;23;20012;-82
2023/05/18 13:44:01;;;;;;;7.88;2.25;;;;;;;;;;6189650;23;20056;-83
2023/05/18 13:46:27;;;;;;;5.00;2.20;;;;;;;;;;6191595;23;20021;-83
2023/05/18 13:48:54;;;;;;;7.30;2.00;;;;;;;;;;6203830;23;20390;-83
2023/05/18 13:51:20;;;;;;;8.55;1.98;;;;;;;;;;6205036;23;20001;-82
2023/05/18 13:53:47;;;;;;;7.45;2.22;;;;;;;;;;6206244;23;20019;-84
2023/05/18 13:56:15;;;;;;;7.90;2.22;;;;;;;;;;6207993;23;19988;-84
2023/05/18 13:58:42;;;;;;;6.60;2.10;;;;;;;;;;6200116;23;20044;-83
2023/05/18 14:01:11;;;;;;;7.35;2.45;;;;;;;;;;6194705;23;20025;-82
2023/05/18 14:03:39;;;;;;;8.45;2.30;;;;;;;;;;6177191;23;20031;-83
2023/05/18 14:06:06;;;;;;;7.97;2.83;;;;;;;;;;6206597;23;19985;-81
2023/05/18 14:08:34;;;;;;;9.98;2.83;;;;;;;;;;6202020;23;20080;-82
2023/05/18 14:11:00;;;;;;;9.63;2.05;;;;;;;;;;6193054;23;20013;-82
2023/05/18 14:13:27;;;;;;;5.97;2.40;;;;;;;;;;6212800;23;20016;-82
2023/05/18 14:15:53;;;;;;;5.30;1.77;;;;;;;;;;6194373;23;20034;-82
2023/05/18 14:18:19;;;;;;;7.30;2.50;;;;;;;;;;6218956;23;20004;-82
2023/05/18 14:20:48;;;;;;;4.97;2.00;;;;;;;;;;6192598;23;19996;-81
2023/05/18 14:23:18;;;;;;;8.43;2.25;;;;;;;;;;6218841;23;20326;-81
2023/05/18 14:25:44;;;;;;;;;;;19.30;69.90;;;;;;6192285;23;20039;-82
2023/05/18 14:28:11;;;;;;;6.15;2.38;;;;;;;;;;6192704;23;19931;-81
2023/05/18 14:30:37;;;;;;;9.15;2.63;;;;;;;;;;6195260;23;20316;-81
2023/05/18 14:33:06;;;;;;;9.13;2.25;;;;;;;;;;6192849;23;20011;-83
2023/05/18 14:35:33;;;;;;;7.32;2.45;;;;;;;;;;6219855;23;20383;-83
2023/05/18 14:38:01;;;;;;;7.97;2.45;;;;;;;;;;6218356;23;20096;-81
2023/05/18 14:40:52;;;;;;;6.03;2.33;;;;;;;;;;6191960;23;20004;-84
2023/05/18 14:43:23;;;;;;;8.48;2.03;;;;;;;;;;6197294;23;20055;-82
2023/05/18 14:45:52;;;;;;;;;;;19.60;70.30;;;;;;6198950;23;20076;-83
2023/05/18 14:51:12;;;;;;;7.30;2.22;;;;;;;;;;6194918;23;20040;-81
2023/05/18 15:38:27;;;;;;;9.30;2.70;;;;;;;;;;6175765;23;20013;-81
2023/05/18 22:49:28;;;;;;;6.45;2.25;;;13.50;92.60;;;;;;6187568;23;20795;-85
2023/05/18 23:35:00;;;;;;;7.40;2.30;;;12.90;94.70;;;;;;6166136;23;20052;-85
2023/05/18 23:51:56;;;;;;;7.78;2.45;;;12.60;95.90;;;;;;6047129;23;20067;-83
